Terminal Aerodrome Forecast
Issued by NWS Sioux Falls, SD

Home | Current Version | Previous Version | Text Only | Print | Product List | Glossary Off
Versions: 1 2 3 4 5 6 7 8 9 10 11 12 13 14 15

980
FTUS43 KFSD 281121
TAFHON
TAF
KHON 281121Z 2812/0112 36009KT P6SM BKN007
     FM281500 36011KT P6SM OVC008
     FM281600 01011KT P6SM OVC010
     FM010600 34009KT P6SM BKN015
     FM010700 34008KT P6SM BKN020=

USA.gov is the U.S. government's official web portal to all federal, state and local government web resources and services.